TimeCDT,TemperatureF,Dew PointF,Humidity,Sea Level PressureIn,VisibilityMPH,Wind Direction,Wind SpeedMPH,Gust SpeedMPH,PrecipitationIn,Events,Conditions,WindDirDegrees,DateUTC
12:53 AM,70.0,64.9,84,30.04,10.0,SE,6.9,-,N/A,,Clear,130,2012-10-23 05:53:00
1:53 AM,69.1,66.0,90,30.03,10.0,SE,6.9,-,N/A,,Clear,130,2012-10-23 06:53:00
2:53 AM,68.0,66.0,93,30.01,10.0,SE,6.9,-,N/A,,Clear,130,2012-10-23 07:53:00
3:53 AM,68.0,64.9,90,30.01,10.0,Calm,Calm,-,N/A,,Partly Cloudy,0,2012-10-23 08:53:00
4:53 AM,69.1,64.9,87,30.02,10.0,ENE,3.5,-,N/A,,Clear,70,2012-10-23 09:53:00
5:53 AM,70.0,66.9,90,30.03,10.0,ENE,4.6,-,N/A,,Clear,60,2012-10-23 10:53:00
6:53 AM,70.0,66.9,90,30.04,10.0,NE,8.1,-,N/A,,Clear,40,2012-10-23 11:53:00
7:53 AM,69.1,66.9,93,30.05,10.0,NE,9.2,-,N/A,,Clear,50,2012-10-23 12:53:00
8:53 AM,70.0,66.9,90,30.06,10.0,East,8.1,-,N/A,,Clear,80,2012-10-23 13:53:00
9:53 AM,72.0,68.0,87,30.07,10.0,ENE,9.2,-,N/A,,Clear,60,2012-10-23 14:53:00
10:53 AM,75.0,68.0,79,30.06,10.0,NE,10.4,-,N/A,,Partly Cloudy,50,2012-10-23 15:53:00
11:31 AM,75.2,69.8,83,30.08,10.0,NE,12.7,-,N/A,,Mostly Cloudy,50,2012-10-23 16:31:00
11:53 AM,77.0,69.8,78,30.08,10.0,ENE,11.5,-,N/A,,Mostly Cloudy,60,2012-10-23 16:53:00
12:53 PM,79.0,69.1,72,30.03,10.0,East,9.2,-,N/A,,Mostly Cloudy,90,2012-10-23 17:53:00
1:53 PM,79.0,68.0,69,30.01,10.0,East,12.7,-,N/A,,Mostly Cloudy,90,2012-10-23 18:53:00
2:25 PM,78.8,68.0,69,30.02,10.0,East,13.8,-,N/A,,Mostly Cloudy,90,2012-10-23 19:25:00
2:53 PM,79.0,68.0,69,30.00,10.0,East,12.7,-,N/A,,Partly Cloudy,100,2012-10-23 19:53:00
3:53 PM,79.0,66.9,66,30.00,10.0,ESE,13.8,-,N/A,,Clear,110,2012-10-23 20:53:00
4:53 PM,78.1,68.0,71,30.00,10.0,East,12.7,-,N/A,,Clear,100,2012-10-23 21:53:00
5:53 PM,75.9,68.0,76,30.01,10.0,ESE,12.7,-,N/A,,Clear,110,2012-10-23 22:53:00
6:53 PM,75.0,68.0,79,30.01,10.0,ESE,10.4,-,N/A,,Clear,120,2012-10-23 23:53:00
7:53 PM,73.9,69.1,85,30.02,10.0,SE,9.2,-,N/A,,Clear,130,2012-10-24 00:53:00
8:53 PM,73.0,69.1,87,30.03,10.0,SE,8.1,-,N/A,,Clear,130,2012-10-24 01:53:00
9:53 PM,72.0,69.1,91,30.04,10.0,SE,10.4,-,N/A,,Clear,140,2012-10-24 02:53:00
10:53 PM,71.1,69.1,93,30.04,10.0,SE,6.9,-,N/A,,Clear,140,2012-10-24 03:53:00
11:53 PM,71.1,68.0,90,30.03,5.0,SE,6.9,-,N/A,,Clear,140,2012-10-24 04:53:00